createdAt,value
2023-05-09T00:02:20.942Z,75.10
2023-05-09T00:04:48.116Z,75.40
2023-05-09T00:07:15.772Z,75.20
2023-05-09T00:09:42.713Z,75.40
2023-05-09T00:12:10.024Z,75.20
2023-05-09T00:14:37.185Z,75.80
2023-05-09T00:17:04.559Z,75.70
2023-05-09T00:19:31.631Z,76.20
2023-05-09T00:21:58.559Z,76.40
2023-05-09T00:24:25.485Z,76.90
2023-05-09T00:26:52.686Z,76.80
2023-05-09T00:29:19.785Z,76.50
2023-05-09T00:31:46.822Z,76.10
2023-05-09T00:34:13.835Z,77.40
2023-05-09T00:36:40.775Z,76.40
2023-05-09T00:39:08.107Z,77.20
2023-05-09T00:41:35.564Z,77.40
2023-05-09T00:44:02.707Z,78.10
2023-05-09T00:46:33.088Z,78.10
2023-05-09T00:49:00.422Z,77.70
2023-05-09T00:51:28.770Z,77.50
2023-05-09T00:53:56.366Z,77.90
2023-05-09T00:56:23.705Z,79.00
2023-05-09T00:58:51.059Z,78.80
2023-05-09T01:01:20.182Z,78.40
2023-05-09T01:03:47.614Z,78.70
2023-05-09T01:06:22.925Z,78.50
2023-05-09T01:08:59.698Z,78.70
2023-05-09T01:11:30.996Z,78.80
2023-05-09T01:14:18.170Z,79.10
2023-05-09T01:16:58.927Z,78.60
2023-05-09T01:19:35.578Z,78.90
2023-05-09T01:22:06.156Z,79.60
2023-05-09T01:24:52.050Z,79.50
2023-05-09T01:27:28.272Z,79.70
2023-05-09T01:29:59.934Z,79.90
2023-05-09T01:32:28.485Z,80.20
2023-05-09T01:34:56.852Z,79.60
2023-05-09T01:37:28.479Z,79.30
2023-05-09T01:39:58.335Z,79.90
2023-05-09T01:42:26.028Z,79.90
2023-05-09T01:44:54.340Z,80.20
2023-05-09T01:47:26.982Z,80.00
2023-05-09T01:49:55.639Z,81.10
2023-05-09T01:52:29.484Z,81.50
2023-05-09T01:54:56.748Z,81.10
2023-05-09T01:57:24.986Z,81.10
2023-05-09T01:59:52.562Z,80.70
2023-05-09T02:02:20.364Z,80.70
2023-05-09T02:04:50.319Z,81.80
2023-05-09T02:07:17.813Z,81.20
2023-05-09T02:09:45.667Z,80.90
2023-05-09T02:12:12.877Z,81.70
2023-05-09T02:14:40.232Z,80.80
2023-05-09T02:17:12.020Z,81.60
2023-05-09T02:19:39.009Z,82.70
2023-05-09T02:22:06.096Z,83.20
2023-05-09T02:24:36.600Z,83.20
2023-05-09T02:27:04.429Z,83.30
2023-05-09T02:29:40.175Z,83.60
2023-05-09T02:32:12.617Z,84.00
2023-05-09T02:34:41.181Z,83.80
2023-05-09T02:37:09.205Z,83.90
2023-05-09T02:39:36.679Z,83.90
2023-05-09T02:42:08.317Z,84.60
2023-05-09T02:44:35.384Z,85.60
2023-05-09T02:47:03.281Z,85.50
2023-05-09T02:49:32.451Z,85.60
2023-05-09T02:52:01.841Z,85.00
2023-05-09T02:54:31.213Z,84.70
2023-05-09T02:56:59.379Z,84.30
2023-05-09T02:59:26.999Z,85.20
2023-05-09T03:01:57.343Z,85.00
2023-05-09T03:04:25.778Z,85.00
2023-05-09T03:06:52.847Z,85.40
2023-05-09T03:09:20.926Z,85.20
2023-05-09T03:11:47.948Z,86.30
2023-05-09T03:14:24.832Z,86.10
2023-05-09T03:16:52.140Z,86.00
2023-05-09T03:19:28.131Z,86.10
2023-05-09T03:21:55.365Z,85.60
2023-05-09T03:24:23.312Z,85.60
2023-05-09T03:26:50.241Z,85.40
2023-05-09T03:29:17.395Z,85.60
2023-05-09T03:31:44.481Z,85.30
2023-05-09T03:34:15.325Z,86.20
2023-05-09T03:36:43.954Z,87.10
2023-05-09T03:39:12.903Z,86.70
2023-05-09T03:41:43.761Z,86.60
2023-05-09T03:44:10.974Z,86.20
2023-05-09T03:46:37.974Z,86.70
2023-05-09T03:49:05.455Z,86.60
2023-05-09T03:51:32.663Z,87.30
2023-05-09T03:54:01.828Z,88.00
2023-05-09T03:56:29.613Z,87.90
2023-05-09T03:58:56.729Z,87.30
2023-05-09T04:01:25.489Z,86.80
2023-05-09T04:03:53.693Z,87.40
2023-05-09T04:06:21.862Z,86.60
2023-05-09T04:08:49.189Z,87.20
2023-05-09T04:11:16.306Z,86.90
2023-05-09T04:13:46.551Z,87.00
2023-05-09T04:16:26.206Z,86.70
2023-05-09T04:18:54.113Z,86.50
2023-05-09T04:21:21.114Z,86.60
2023-05-09T04:23:50.586Z,86.70
2023-05-09T04:26:23.416Z,86.10
2023-05-09T04:28:53.611Z,86.70
2023-05-09T04:31:21.316Z,86.40
2023-05-09T04:33:51.540Z,86.10
2023-05-09T04:36:18.898Z,85.60
2023-05-09T04:38:50.454Z,85.30
2023-05-09T04:41:23.170Z,85.00
2023-05-09T04:43:53.817Z,84.60
2023-05-09T04:46:25.022Z,85.30
2023-05-09T04:48:52.678Z,86.20
2023-05-09T04:51:20.571Z,85.10
2023-05-09T04:53:47.967Z,84.50
2023-05-09T04:56:17.999Z,85.00
2023-05-09T04:58:46.770Z,84.40
2023-05-09T05:01:16.094Z,84.00
2023-05-09T05:03:43.916Z,83.40
2023-05-09T05:06:12.601Z,83.20
2023-05-09T05:08:44.847Z,82.70
2023-05-09T05:11:15.304Z,83.10
2023-05-09T05:13:42.743Z,82.40
2023-05-09T05:16:12.391Z,82.30
2023-05-09T05:18:39.590Z,82.00
2023-05-09T05:21:06.855Z,81.10
2023-05-09T05:23:33.852Z,80.50
2023-05-09T05:26:03.279Z,80.40
2023-05-09T05:28:32.176Z,79.00
2023-05-09T05:30:59.154Z,79.40
2023-05-09T05:33:26.396Z,78.30
2023-05-09T05:35:56.652Z,77.40
2023-05-09T05:38:23.624Z,77.00
2023-05-09T05:40:54.192Z,76.40
2023-05-09T05:43:24.230Z,76.10
2023-05-09T05:45:51.683Z,75.40
2023-05-09T05:48:24.827Z,75.50
2023-05-09T05:50:53.633Z,75.30
2023-05-09T05:53:24.551Z,74.80
2023-05-09T05:55:51.974Z,74.00
2023-05-09T05:58:24.664Z,74.40
2023-05-09T06:00:52.852Z,73.40
2023-05-09T06:03:22.389Z,73.70
2023-05-09T06:05:56.702Z,72.70
2023-05-09T06:08:23.713Z,73.10
2023-05-09T06:10:50.807Z,73.20
2023-05-09T06:13:18.422Z,72.70
2023-05-09T06:15:56.127Z,72.50
2023-05-09T06:18:24.713Z,72.20
2023-05-09T06:20:53.306Z,71.90
2023-05-09T06:23:22.389Z,72.00
2023-05-09T06:25:50.251Z,72.40
2023-05-09T06:28:17.440Z,71.70
2023-05-09T06:30:45.068Z,71.60
2023-05-09T06:33:12.419Z,70.90
2023-05-09T06:35:42.024Z,71.40
2023-05-09T06:38:09.099Z,71.30
2023-05-09T06:40:38.673Z,70.60
2023-05-09T06:43:10.579Z,70.70
2023-05-09T06:45:40.339Z,70.40
2023-05-09T06:48:11.657Z,69.70
2023-05-09T06:50:38.956Z,70.30
2023-05-09T06:53:07.617Z,69.30
2023-05-09T06:55:36.823Z,69.80
2023-05-09T06:58:09.032Z,70.00
2023-05-09T07:00:36.063Z,69.10
2023-05-09T07:03:03.133Z,69.90
2023-05-09T07:05:30.181Z,69.10
2023-05-09T07:07:57.689Z,68.70
2023-05-09T07:10:25.282Z,69.00
2023-05-09T07:12:55.557Z,68.80
2023-05-09T07:15:33.003Z,68.90
2023-05-09T07:18:07.348Z,69.20
2023-05-09T07:20:34.614Z,67.90
2023-05-09T07:23:04.072Z,66.80
2023-05-09T07:25:31.326Z,67.40
2023-05-09T07:27:58.368Z,68.20
2023-05-09T07:30:25.811Z,66.70
2023-05-09T07:32:53.521Z,66.70
2023-05-09T07:35:20.608Z,66.20
2023-05-09T07:37:47.479Z,67.20
2023-05-09T07:40:14.903Z,66.00
2023-05-09T07:42:47.358Z,67.60
2023-05-09T07:45:14.806Z,65.90
2023-05-09T07:47:46.236Z,65.80
2023-05-09T07:50:13.214Z,65.90
2023-05-09T07:52:40.062Z,66.60
2023-05-09T07:55:08.643Z,65.90
2023-05-09T07:57:36.189Z,66.00
2023-05-09T08:00:08.454Z,65.00
2023-05-09T08:02:41.367Z,66.10
2023-05-09T08:05:11.527Z,65.20
2023-05-09T08:07:38.837Z,66.10
2023-05-09T08:10:06.463Z,65.30
2023-05-09T08:12:33.597Z,65.60
2023-05-09T08:15:00.699Z,65.40
2023-05-09T08:17:29.733Z,65.60
2023-05-09T08:19:56.766Z,64.20
2023-05-09T08:22:24.997Z,63.90
2023-05-09T08:24:51.961Z,64.10
2023-05-09T08:27:22.250Z,64.20
2023-05-09T08:29:49.163Z,62.90
2023-05-09T08:32:17.648Z,64.10
2023-05-09T08:34:44.620Z,62.90
2023-05-09T08:37:13.657Z,64.00
2023-05-09T08:39:42.198Z,63.20
2023-05-09T08:42:09.758Z,62.40
2023-05-09T08:44:37.166Z,62.90
2023-05-09T08:47:04.960Z,63.40
2023-05-09T08:49:32.241Z,62.40
2023-05-09T08:51:59.207Z,62.60
2023-05-09T08:54:26.212Z,62.40
2023-05-09T08:56:53.666Z,61.80
2023-05-09T08:59:23.334Z,61.30
2023-05-09T09:01:50.837Z,62.20
2023-05-09T09:04:18.136Z,62.50
2023-05-09T09:06:45.627Z,61.50
2023-05-09T09:09:14.057Z,62.10
2023-05-09T09:11:43.111Z,61.00
2023-05-09T09:14:18.383Z,60.90
2023-05-09T09:16:47.937Z,60.50
2023-05-09T09:19:17.422Z,60.50
2023-05-09T09:21:50.291Z,60.70
2023-05-09T09:24:23.880Z,59.90
2023-05-09T09:26:52.145Z,60.30
2023-05-09T09:29:19.399Z,61.00
2023-05-09T09:31:46.993Z,60.70
2023-05-09T09:34:19.371Z,59.60
2023-05-09T09:36:50.326Z,61.00
2023-05-09T09:39:17.925Z,60.30
2023-05-09T09:41:45.250Z,60.60
2023-05-09T09:44:21.999Z,61.30
2023-05-09T09:46:56.549Z,61.30
2023-05-09T09:49:29.421Z,61.60
2023-05-09T09:51:57.508Z,61.00
2023-05-09T09:54:28.062Z,61.30
2023-05-09T09:56:58.620Z,61.80
2023-05-09T09:59:26.778Z,61.50
2023-05-09T10:01:56.793Z,60.60
2023-05-09T10:04:24.519Z,60.70
2023-05-09T10:06:55.185Z,60.40
2023-05-09T10:09:25.639Z,61.90
2023-05-09T10:11:54.975Z,60.80
2023-05-09T10:14:24.542Z,61.00
2023-05-09T10:16:56.894Z,59.70
2023-05-09T10:19:25.748Z,60.70
2023-05-09T10:21:56.710Z,61.10
2023-05-09T10:24:35.617Z,60.70
2023-05-09T10:27:07.014Z,60.90
2023-05-09T10:29:39.036Z,60.80
2023-05-09T10:32:13.526Z,61.00
2023-05-09T10:34:42.561Z,61.30
2023-05-09T10:37:10.175Z,59.80
2023-05-09T10:39:38.020Z,59.90
2023-05-09T10:42:06.164Z,61.60
2023-05-09T10:44:33.595Z,61.00
2023-05-09T10:47:02.070Z,61.70
2023-05-09T10:49:29.633Z,60.90
2023-05-09T10:51:59.683Z,60.60
2023-05-09T10:54:31.217Z,60.50
2023-05-09T10:56:58.294Z,60.80
2023-05-09T10:59:43.126Z,62.00
2023-05-09T11:02:16.092Z,61.60
2023-05-09T11:04:46.672Z,61.10
2023-05-09T11:07:24.576Z,61.40
2023-05-09T11:09:52.718Z,61.20
2023-05-09T11:12:21.554Z,61.90
2023-05-09T11:14:49.701Z,60.80
2023-05-09T11:17:23.507Z,61.00
2023-05-09T11:19:51.115Z,60.90
2023-05-09T11:22:22.349Z,60.40
2023-05-09T11:24:50.953Z,59.60
2023-05-09T11:27:22.054Z,59.80
2023-05-09T11:30:09.869Z,60.00
2023-05-09T11:32:44.353Z,60.20
2023-05-09T11:35:17.235Z,60.50
2023-05-09T11:37:47.257Z,60.50
2023-05-09T11:40:15.332Z,59.90
2023-05-09T11:42:43.917Z,59.00
2023-05-09T11:45:13.593Z,60.60
2023-05-09T11:47:41.137Z,60.50
2023-05-09T11:50:10.167Z,60.60
2023-05-09T11:52:48.184Z,60.10
2023-05-09T11:55:19.935Z,60.50
2023-05-09T11:57:53.787Z,59.50
2023-05-09T12:00:23.512Z,60.80
2023-05-09T12:02:52.263Z,60.10
2023-05-09T12:05:20.868Z,60.30
2023-05-09T12:07:47.915Z,60.30
2023-05-09T12:10:16.194Z,60.50
2023-05-09T12:12:45.558Z,61.20
2023-05-09T12:15:14.167Z,61.70
2023-05-09T12:17:44.428Z,62.60
2023-05-09T12:20:12.042Z,61.50
2023-05-09T12:22:46.060Z,61.10
2023-05-09T12:25:13.592Z,61.40
2023-05-09T12:27:42.342Z,61.40
2023-05-09T12:30:11.567Z,61.10
2023-05-09T12:32:42.375Z,61.10
2023-05-09T12:35:10.910Z,61.10
2023-05-09T12:37:58.365Z,60.60
2023-05-09T12:40:26.656Z,60.30
2023-05-09T12:42:57.706Z,60.40
2023-05-09T12:45:25.079Z,61.30
2023-05-09T12:47:52.810Z,61.40
2023-05-09T12:50:20.197Z,61.60
2023-05-09T12:53:02.578Z,61.10
2023-05-09T12:55:31.805Z,60.60
2023-05-09T12:58:00.810Z,60.30
2023-05-09T13:00:28.836Z,60.10
2023-05-09T13:02:55.896Z,60.60
2023-05-09T13:05:23.650Z,60.70
2023-05-09T13:08:11.627Z,61.50
2023-05-09T13:10:38.502Z,61.10
2023-05-09T13:13:05.462Z,62.50
2023-05-09T13:15:33.264Z,62.20
2023-05-09T13:18:00.293Z,62.00
2023-05-09T13:20:27.725Z,62.20
2023-05-09T13:22:55.001Z,61.40
2023-05-09T13:25:22.793Z,61.40
2023-05-09T13:27:52.084Z,61.40
2023-05-09T13:30:20.946Z,61.70
2023-05-09T13:32:48.191Z,61.40
2023-05-09T13:35:15.810Z,61.70
2023-05-09T13:37:43.764Z,62.40
2023-05-09T13:40:11.178Z,62.10
2023-05-09T13:42:39.897Z,62.30
2023-05-09T13:45:07.251Z,62.80
2023-05-09T13:47:36.009Z,61.80
2023-05-09T13:50:04.686Z,61.30
2023-05-09T13:52:32.108Z,60.80
2023-05-09T13:54:59.210Z,60.40
2023-05-09T13:57:26.221Z,59.60
2023-05-09T13:59:55.036Z,60.20
2023-05-09T14:02:22.155Z,59.60
2023-05-09T14:04:50.912Z,60.10
2023-05-09T14:07:17.984Z,59.10
2023-05-09T14:09:45.384Z,58.20
2023-05-09T14:12:15.554Z,58.80
2023-05-09T14:14:43.251Z,59.50
2023-05-09T14:17:10.366Z,59.40
2023-05-09T14:19:37.274Z,59.90
2023-05-09T14:22:04.601Z,60.50
2023-05-09T14:24:33.557Z,61.00
2023-05-09T14:27:02.176Z,60.50
2023-05-09T14:29:29.618Z,59.70
2023-05-09T14:31:56.698Z,60.00
2023-05-09T14:34:23.733Z,60.60
2023-05-09T14:36:53.802Z,60.90
2023-05-09T14:39:21.139Z,60.90
2023-05-09T14:41:54.198Z,61.00
2023-05-09T14:44:21.207Z,61.50
2023-05-09T14:46:48.503Z,61.50
2023-05-09T14:49:15.434Z,61.80
2023-05-09T14:51:44.475Z,62.20
2023-05-09T14:54:15.797Z,62.80
2023-05-09T14:56:42.920Z,62.30
2023-05-09T14:59:13.342Z,62.30
2023-05-09T15:01:41.051Z,62.60
2023-05-09T15:04:08.224Z,62.20
2023-05-09T15:06:36.106Z,62.40
2023-05-09T15:09:03.564Z,62.30
2023-05-09T15:11:36.395Z,62.20
2023-05-09T15:14:17.770Z,62.60
2023-05-09T15:16:44.876Z,62.60
2023-05-09T15:19:12.698Z,62.70
2023-05-09T15:21:39.637Z,63.10
2023-05-09T15:24:06.827Z,63.20
2023-05-09T15:26:34.080Z,63.20
2023-05-09T15:29:01.373Z,63.50
2023-05-09T15:31:31.954Z,62.50
2023-05-09T15:34:02.349Z,62.90
2023-05-09T15:36:30.601Z,62.40
2023-05-09T15:39:00.440Z,62.20
2023-05-09T15:41:28.879Z,62.40
2023-05-09T15:43:58.904Z,62.40
2023-05-09T15:46:28.431Z,62.70
2023-05-09T15:49:01.421Z,62.60
2023-05-09T15:51:30.167Z,63.00
2023-05-09T15:53:57.184Z,62.70
2023-05-09T15:56:24.229Z,62.40
2023-05-09T15:58:51.237Z,62.70
2023-05-09T16:01:18.318Z,62.50
2023-05-09T16:03:46.133Z,62.00
2023-05-09T16:06:14.136Z,62.10
2023-05-09T16:08:42.102Z,62.60
2023-05-09T16:11:13.730Z,62.30
2023-05-09T16:13:41.325Z,62.90
2023-05-09T16:16:09.520Z,63.20
2023-05-09T16:18:36.935Z,63.50
2023-05-09T16:21:04.534Z,64.00
2023-05-09T16:26:27.138Z,64.40
2023-05-09T16:28:54.256Z,64.50
2023-05-09T16:31:31.864Z,63.90
2023-05-09T16:34:00.363Z,63.10
2023-05-09T16:36:30.017Z,63.30
2023-05-09T16:42:44.665Z,63.40
2023-05-09T16:45:18.642Z,63.70
2023-05-09T16:48:48.560Z,64.00
2023-05-09T16:54:37.118Z,64.60
2023-05-09T16:57:08.766Z,64.00
2023-05-09T17:03:13.039Z,63.90
2023-05-09T17:12:53.788Z,64.60
2023-05-09T17:21:09.279Z,64.90
2023-05-09T17:23:47.629Z,65.80
2023-05-09T17:26:14.564Z,65.70
2023-05-09T17:28:42.013Z,65.80
2023-05-09T17:31:09.134Z,66.00
2023-05-09T17:33:37.505Z,66.40
2023-05-09T17:36:06.145Z,66.10
2023-05-09T17:38:34.039Z,66.30
2023-05-09T17:41:04.109Z,66.30
2023-05-09T17:43:35.529Z,66.50
2023-05-09T17:46:16.354Z,66.50
2023-05-09T17:49:02.692Z,66.90
2023-05-09T17:51:29.981Z,66.80
2023-05-09T17:54:16.064Z,67.20
2023-05-09T17:56:45.837Z,67.50
2023-05-09T17:59:42.982Z,67.70
2023-05-09T18:05:14.986Z,67.90
2023-05-09T18:08:03.722Z,68.40
2023-05-09T18:10:31.176Z,68.20
2023-05-09T18:13:02.268Z,68.80
2023-05-09T18:15:38.458Z,68.90
2023-05-09T18:18:06.607Z,69.40
2023-05-09T18:28:58.762Z,69.40
2023-05-09T18:31:26.263Z,70.20
2023-05-09T18:33:53.956Z,70.00
2023-05-09T18:36:21.842Z,70.10
2023-05-09T18:38:52.097Z,69.60
2023-05-09T18:41:19.279Z,70.50
2023-05-09T18:43:46.692Z,70.60
2023-05-09T18:46:17.915Z,69.40
2023-05-09T18:48:45.697Z,69.80
2023-05-09T18:51:13.095Z,70.50
2023-05-09T18:53:40.645Z,70.30
2023-05-09T18:56:09.897Z,70.40
2023-05-09T18:58:37.304Z,70.60
2023-05-09T19:01:05.668Z,70.50
2023-05-09T19:03:35.932Z,70.80
2023-05-09T19:06:05.054Z,71.20
2023-05-09T19:08:32.394Z,71.90
2023-05-09T19:11:00.382Z,71.90
2023-05-09T19:13:28.085Z,71.40
2023-05-09T19:15:56.430Z,71.80
2023-05-09T19:18:24.650Z,72.40
2023-05-09T19:20:51.856Z,73.60
2023-05-09T19:26:03.991Z,73.60
2023-05-09T19:28:31.558Z,74.00
2023-05-09T19:33:45.768Z,74.40
2023-05-09T19:36:36.462Z,74.60
2023-05-09T19:39:24.591Z,74.90
2023-05-09T19:41:53.595Z,75.10
2023-05-09T19:44:21.684Z,75.30
2023-05-09T19:46:50.385Z,75.80
2023-05-09T19:49:18.773Z,75.50
2023-05-09T19:51:46.677Z,75.30
2023-05-09T19:54:34.912Z,75.50
2023-05-09T19:57:06.947Z,76.10
2023-05-09T19:59:34.900Z,76.70
2023-05-09T20:02:02.477Z,77.10
2023-05-09T20:04:37.435Z,77.80
2023-05-09T20:09:50.486Z,78.40
2023-05-09T20:12:18.555Z,78.00
2023-05-09T20:14:46.743Z,78.70
2023-05-09T20:17:14.745Z,78.30
2023-05-09T20:19:42.820Z,78.80
2023-05-09T20:22:11.175Z,79.30
2023-05-09T20:24:41.397Z,79.50
2023-05-09T20:27:09.549Z,79.30
2023-05-09T20:29:37.627Z,80.20
2023-05-09T20:32:06.696Z,80.80
2023-05-09T20:34:38.744Z,80.40
2023-05-09T20:37:07.995Z,81.20
2023-05-09T20:39:35.964Z,81.40
2023-05-09T20:42:10.211Z,82.50
2023-05-09T20:44:42.845Z,82.00
2023-05-09T20:47:11.087Z,81.70
2023-05-09T20:49:38.889Z,82.00
2023-05-09T20:52:06.568Z,82.30
2023-05-09T20:54:34.040Z,82.50
2023-05-09T20:57:01.473Z,82.60
2023-05-09T20:59:28.716Z,81.90
2023-05-09T21:02:02.964Z,82.00
2023-05-09T21:04:35.430Z,81.80
2023-05-09T21:07:09.260Z,82.30
2023-05-09T21:09:36.490Z,82.30
2023-05-09T21:12:04.613Z,82.10
2023-05-09T21:14:46.535Z,81.80
2023-05-09T21:17:14.774Z,82.30
2023-05-09T21:19:42.248Z,82.30
2023-05-09T21:22:09.521Z,82.60
2023-05-09T21:24:36.537Z,82.30
2023-05-09T21:27:05.629Z,82.70
2023-05-09T21:29:32.922Z,82.70
2023-05-09T21:32:02.566Z,83.40
2023-05-09T21:34:31.391Z,82.60
2023-05-09T21:36:59.872Z,83.80
2023-05-09T21:39:37.439Z,83.90
2023-05-09T21:42:15.297Z,84.50
2023-05-09T21:44:42.292Z,84.90
2023-05-09T21:47:14.750Z,84.60
2023-05-09T21:49:42.036Z,84.80
2023-05-09T21:52:09.596Z,85.20
2023-05-09T21:54:37.103Z,85.80
2023-05-09T21:57:07.583Z,85.90
2023-05-09T21:59:34.983Z,86.20
2023-05-09T22:02:11.201Z,85.80
2023-05-09T22:04:40.296Z,86.10
2023-05-09T22:07:08.887Z,86.60
2023-05-09T22:09:40.110Z,86.20
2023-05-09T22:12:14.660Z,87.70
2023-05-09T22:14:52.527Z,87.90
2023-05-09T22:17:25.103Z,88.40
2023-05-09T22:19:52.353Z,88.20
2023-05-09T22:22:21.762Z,88.70
2023-05-09T22:24:58.753Z,89.20
2023-05-09T22:27:47.311Z,89.10
2023-05-09T22:33:10.608Z,90.00
2023-05-09T22:38:48.631Z,90.00
2023-05-09T22:41:16.206Z,90.00
2023-05-09T22:43:43.542Z,90.30
2023-05-09T22:46:16.101Z,90.20
2023-05-09T22:52:06.472Z,90.20
2023-05-09T22:54:34.261Z,90.20
2023-05-09T22:57:28.514Z,90.30
2023-05-09T22:59:59.480Z,90.30
2023-05-09T23:02:28.112Z,90.60
2023-05-09T23:04:57.561Z,90.60
2023-05-09T23:10:43.922Z,90.70
2023-05-09T23:23:28.960Z,91.80
2023-05-09T23:29:49.305Z,92.30
2023-05-09T23:35:35.851Z,92.50
2023-05-09T23:38:04.661Z,92.70
2023-05-09T23:44:40.384Z,92.80
2023-05-09T23:47:10.122Z,93.00
2023-05-09T23:52:27.126Z,93.50
2023-05-09T23:54:56.127Z,93.60
2023-05-09T23:57:26.618Z,93.60
2023-05-09T23:59:54.843Z,93.90
